Malo, Washington
Current Conditions -  °F | °C
As of 10:50 AM on Wednesday 26 Nov 2014 (Local Time) from KOMK Reporting Station
Haze Haze  
Wind Chill: 29°   Ceiling: 1900
Heat Index: 34°   Visibility: 1.5mi
Dew Point: 34°   Wind: 6mph
Humidity: 100%   Direction: 180°S
Pressure: 30.16"   Gusts: NA
Location:  48.8°N, 118.61°W
Report Text: KOMK 261850Z AUTO 18005KT 1 1/2SM BR FEW002 OVC019 01/01 A3016 RMK AO2
Loading
Personal Weather Stations






























Interactive Weather Map New forecast layout! Learn more

10-Day Weather Forecast

Advertisements
Track Severe Weather on mobile